Time;durP1;ratioP1;P1;durP2;ratioP2;P2;SDS_P1;SDS_P2;PMS_P1;PMS_P2;Temp;Humidity;BMP_temperature;BMP_pressure;BME280_temperature;BME280_humidity;BME280_pressure;Samples;Min_cycle;Max_cycle;Signal;HPM_P1;HPM_P2
2023/10/07 00:00:31;;;;;;;1.00;0.90;;;;;;;11.84;84.00;95521.00;5030147;28;20216;-74
2023/10/07 00:02:59;;;;;;;2.25;1.20;;;;;;;11.78;84.32;95526.88;5030407;28;20591;-75
2023/10/07 00:05:32;;;;;;;0.65;0.65;;;;;;;11.78;84.56;95516.81;5030422;28;20212;-75
2023/10/07 00:08:01;;;;;;;0.30;0.30;;;;;;;11.74;84.38;95524.78;5030329;28;20569;-75
2023/10/07 00:10:29;;;;;;;0.20;0.20;;;;;;;11.71;84.62;95517.25;5030222;28;20327;-75
2023/10/07 00:12:58;;;;;;;0.10;0.10;;;;;;;11.67;84.45;95521.69;5029919;28;20243;-75
2023/10/07 00:15:29;;;;;;;0.30;0.30;;;;;;;11.60;85.05;95515.91;5029950;28;20215;-75
2023/10/07 00:18:04;;;;;;;1.02;0.93;;;;;;;11.61;85.22;95505.88;5010253;28;20189;-75
2023/10/07 00:20:33;;;;;;;0.20;0.20;;;;;;;11.54;85.71;95505.50;5025303;28;20291;-74
2023/10/07 00:23:00;;;;;;;0.20;0.20;;;;;;;11.43;86.11;95504.16;5030000;28;20208;-75
2023/10/07 00:25:30;;;;;;;0.20;0.20;;;;;;;11.37;86.72;95511.63;5030244;28;20227;-75
2023/10/07 00:27:58;;;;;;;0.60;0.30;;;;;;;11.29;86.74;95499.63;5029871;28;20204;-75
2023/10/07 00:30:29;;;;;;;0.20;0.20;;;;;;;11.21;87.28;95500.34;5029925;28;20387;-75
2023/10/07 00:32:57;;;;;;;0.20;0.20;;;;;;;11.17;87.40;95496.69;5029972;28;20216;-75
2023/10/07 00:35:24;;;;;;;1.38;1.02;;;;;;;11.09;87.57;95502.03;5029950;28;20212;-75
2023/10/07 00:37:52;;;;;;;1.88;1.35;;;;;;;11.06;87.84;95483.69;5029729;28;20216;-75
2023/10/07 00:40:31;;;;;;;2.03;1.25;;;;;;;10.97;87.81;95484.41;5029749;28;20213;-75
2023/10/07 00:42:58;;;;;;;0.20;0.20;;;;;;;10.97;88.00;95492.56;5029890;28;20204;-75
2023/10/07 00:45:27;;;;;;;0.17;0.17;;;;;;;11.18;87.67;95492.06;5029695;28;20712;-75
2023/10/07 00:48:00;;;;;;;1.50;0.95;;;;;;;11.10;87.79;95480.03;5029715;28;20212;-75
2023/10/07 00:50:27;;;;;;;1.88;1.33;;;;;;;11.01;88.39;95481.91;5029599;28;20293;-75
2023/10/07 00:52:58;;;;;;;0.20;0.20;;;;;;;10.85;88.84;95480.66;5029619;28;20219;-74
2023/10/07 00:55:29;;;;;;;1.58;0.77;;;;;;;10.93;88.98;95488.06;5029974;28;20205;-75
2023/10/07 01:00:46;;;;;;;0.10;0.10;;;;;;;10.69;89.69;95481.03;5033162;28;20583;-75
2023/10/07 01:03:17;;;;;;;0.15;0.15;;;;;;;10.71;90.45;95474.50;5033154;28;20226;-75
2023/10/07 01:05:55;;;;;;;0.40;0.40;;;;;;;10.72;90.51;95478.81;5033664;28;20258;-75
2023/10/07 01:08:27;;;;;;;2.03;1.30;;;;;;;10.69;90.80;95480.22;5033304;28;20575;-75
2023/10/07 01:11:06;;;;;;;0.15;0.15;;;;;;;10.62;90.75;95479.88;5033329;28;20596;-75
2023/10/07 01:13:35;;;;;;;0.30;0.30;;;;;;;10.65;90.85;95469.22;5033276;28;20581;-75
2023/10/07 01:16:07;;;;;;;0.30;0.30;;;;;;;10.60;91.09;95477.47;5033335;28;20212;-75
2023/10/07 01:18:39;;;;;;;0.25;0.25;;;;;;;10.58;90.90;95476.97;5033459;28;20204;-75
2023/10/07 01:21:11;;;;;;;0.20;0.20;;;;;;;10.58;90.76;95471.53;5033212;28;20565;-76
2023/10/07 01:23:44;;;;;;;2.83;1.40;;;;;;;10.48;91.20;95474.50;5033210;28;20675;-75
2023/10/07 01:26:15;;;;;;;2.17;1.40;;;;;;;10.41;91.22;95476.81;5033106;28;20726;-75
2023/10/07 01:28:43;;;;;;;1.95;1.42;;;;;;;10.43;91.37;95477.31;5032882;28;20287;-75
2023/10/07 01:31:12;;;;;;;2.97;1.60;;;;;;;10.38;91.72;95479.34;5033024;28;20212;-75
2023/10/07 01:33:41;;;;;;;2.10;1.30;;;;;;;10.42;91.59;95489.25;5032440;28;20728;-75
2023/10/07 01:36:13;;;;;;;4.40;1.50;;;;;;;10.42;91.33;95489.25;5032534;28;20286;-75
2023/10/07 01:38:44;;;;;;;2.40;1.40;;;;;;;10.47;90.68;95483.72;5032604;28;20254;-75
2023/10/07 01:41:18;;;;;;;5.07;1.40;;;;;;;10.44;90.77;95489.75;5032582;28;20211;-75
2023/10/07 01:43:56;;;;;;;2.55;1.40;;;;;;;10.38;91.07;95485.56;5032420;28;20206;-75
2023/10/07 01:46:27;;;;;;;0.20;0.20;;;;;;;10.38;90.91;95485.56;5032173;28;20208;-75
2023/10/07 01:48:57;;;;;;;0.35;0.35;;;;;;;10.30;91.33;95480.84;5030738;28;20586;-75
2023/10/07 01:51:26;;;;;;;0.10;0.10;;;;;;;10.22;91.99;95484.28;5031310;28;20677;-75
2023/10/07 01:53:56;;;;;;;16.10;0.63;;;;;;;10.12;92.43;95476.34;5032269;28;20402;-75
2023/10/07 01:56:26;;;;;;;2.50;1.40;;;;;;;10.11;92.25;95480.16;5031661;28;20220;-75
2023/10/07 01:58:54;;;;;;;2.03;1.20;;;;;;;10.04;92.63;95479.75;5032045;28;20230;-74
2023/10/07 02:01:22;;;;;;;0.28;0.28;;;;;;;10.10;92.64;95483.97;5031947;28;20204;-75
2023/10/07 02:03:50;;;;;;;0.30;0.30;;;;;;;10.11;92.72;95474.75;5032139;28;20546;-75
2023/10/07 02:06:18;;;;;;;1.15;1.02;;;;;;;10.14;92.99;95468.72;5031850;28;20555;-75
2023/10/07 02:08:45;;;;;;;0.30;0.30;;;;;;;10.20;92.80;95472.97;5031752;28;20211;-75
2023/10/07 02:11:18;;;;;;;2.20;1.50;;;;;;;10.17;92.65;95468.09;5031301;28;20324;-75
2023/10/07 02:13:46;;;;;;;2.05;1.45;;;;;;;10.10;92.44;95459.63;5028567;28;20291;-75
2023/10/07 02:16:16;;;;;;;3.22;1.83;;;;;;;10.15;92.52;95464.91;5030100;28;20287;-75
2023/10/07 02:18:44;;;;;;;0.20;0.20;;;;;;;10.08;93.22;95462.63;5031395;28;20200;-75
2023/10/07 02:21:11;;;;;;;0.10;0.10;;;;;;;9.98;94.56;95458.22;5031709;28;20204;-75
2023/10/07 02:23:40;;;;;;;4.05;1.70;;;;;;;9.88;95.50;95460.34;5028803;28;20287;-75
2023/10/07 02:26:14;;;;;;;2.70;1.38;;;;;;;9.89;96.51;95457.31;5031551;28;20204;-75
2023/10/07 02:28:43;;;;;;;0.38;0.38;;;;;;;9.84;96.42;95460.13;5031534;28;20203;-74
2023/10/07 02:31:15;;;;;;;0.40;0.40;;;;;;;9.91;96.22;95463.25;5031050;28;20208;-75
2023/10/07 02:33:45;;;;;;;0.28;0.28;;;;;;;9.94;96.08;95459.13;5031250;28;20697;-75
2023/10/07 02:36:27;;;;;;;0.30;0.30;;;;;;;9.90;96.42;95458.94;5031443;28;20342;-75
2023/10/07 02:38:54;;;;;;;0.22;0.22;;;;;;;9.88;96.77;95463.84;5031314;28;20921;-75
2023/10/07 02:41:21;;;;;;;2.58;1.50;;;;;;;9.72;97.74;95462.53;5030969;28;20205;-75
2023/10/07 02:43:49;;;;;;;0.20;0.20;;;;;;;9.60;99.66;95465.75;5032269;28;20624;-75
2023/10/07 02:46:31;;;;;;;1.35;0.52;;;;;;;9.52;100.00;95465.66;5030808;28;20212;-75
2023/10/07 02:49:05;;;;;;;3.97;1.48;;;;;;;9.58;100.00;95456.34;5031041;28;20239;-75
2023/10/07 02:51:33;;;;;;;1.40;1.30;;;;;;;9.69;100.00;95457.75;5031022;28;20247;-74
2023/10/07 02:54:06;;;;;;;0.20;0.20;;;;;;;9.67;100.00;95454.53;5030986;28;20319;-75
2023/10/07 02:56:43;;;;;;;0.20;0.20;;;;;;;9.67;100.00;95459.97;5031222;28;20234;-75
2023/10/07 02:59:26;;;;;;;0.30;0.30;;;;;;;9.68;98.64;95456.16;5030905;28;20657;-75
2023/10/07 03:02:12;;;;;;;0.47;0.47;;;;;;;9.57;97.21;95457.44;5019355;28;20214;-75
2023/10/07 03:04:42;;;;;;;0.10;0.10;;;;;;;9.57;96.57;95465.53;5030926;28;20212;-74
2023/10/07 03:07:14;;;;;;;1.60;1.50;;;;;;;9.51;97.62;95455.94;5030539;28;20215;-75
2023/10/07 03:09:45;;;;;;;1.80;1.35;;;;;;;9.38;100.00;95465.66;5030633;28;20290;-75
2023/10/07 03:12:13;;;;;;;0.20;0.20;;;;;;;9.27;99.67;95469.66;5030574;28;20675;-75
2023/10/07 03:14:43;;;;;;;0.57;0.57;;;;;;;9.14;99.95;95468.53;5030579;28;20228;-75
2023/10/07 03:17:18;;;;;;;0.80;0.80;;;;;;;9.06;100.00;95476.50;5030439;28;20209;-75
2023/10/07 03:19:53;;;;;;;0.55;0.55;;;;;;;8.98;100.00;95469.88;5029908;28;20208;-75
2023/10/07 03:22:28;;;;;;;1.27;0.57;;;;;;;9.08;100.00;95469.69;5025430;28;20290;-73
2023/10/07 03:25:00;;;;;;;0.20;0.20;;;;;;;9.10;100.00;95472.91;5030994;28;20262;-73
2023/10/07 03:27:27;;;;;;;0.30;0.30;;;;;;;9.16;100.00;95479.00;5030034;28;20212;-74
2023/10/07 03:30:12;;;;;;;0.30;0.30;;;;;;;9.17;100.00;95476.03;5030911;28;20274;-74
2023/10/07 03:32:54;;;;;;;2.30;1.60;;;;;;;9.18;100.00;95469.53;5030466;28;20226;-74
2023/10/07 03:35:35;;;;;;;2.95;1.70;;;;;;;9.08;100.00;95480.50;5030095;28;20262;-77
2023/10/07 03:38:08;;;;;;;2.15;1.42;;;;;;;9.18;100.00;95480.34;5024841;28;20303;-74
2023/10/07 03:40:38;;;;;;;2.10;1.52;;;;;;;9.21;100.00;95468.13;5030230;28;20204;-74
2023/10/07 03:43:08;;;;;;;2.65;1.40;;;;;;;9.12;100.00;95480.72;5030230;28;20597;-74
2023/10/07 03:45:39;;;;;;;0.20;0.20;;;;;;;9.07;100.00;95473.50;5031551;28;20234;-74
2023/10/07 03:48:22;;;;;;;0.20;0.20;;;;;;;9.07;100.00;95478.91;5029820;28;20231;-74
2023/10/07 03:50:59;;;;;;;0.68;0.68;;;;;;;9.04;100.00;95473.28;5028928;28;20232;-74
2023/10/07 03:53:31;;;;;;;0.43;0.43;;;;;;;9.12;100.00;95478.03;5029941;28;20207;-74
2023/10/07 03:55:59;;;;;;;0.30;0.30;;;;;;;9.18;100.00;95474.13;5030154;28;20215;-74
2023/10/07 03:58:27;;;;;;;0.20;0.20;;;;;;;9.19;100.00;95479.22;5029858;28;20245;-74
2023/10/07 04:00:56;;;;;;;0.15;0.15;;;;;;;9.15;100.00;95470.13;5030047;28;20295;-75
2023/10/07 04:03:24;;;;;;;1.90;1.17;;;;;;;9.18;100.00;95479.53;5029444;28;20220;-75
2023/10/07 04:05:51;;;;;;;0.47;0.47;;;;;;;9.19;100.00;95486.53;5030204;28;20576;-74
2023/10/07 04:08:19;;;;;;;4.50;1.45;;;;;;;9.29;100.00;95491.00;5030041;28;20235;-74
2023/10/07 04:10:47;;;;;;;2.17;1.30;;;;;;;9.26;100.00;95487.78;5030192;28;20635;-75
2023/10/07 04:13:22;;;;;;;2.88;1.63;;;;;;;9.31;100.00;95488.75;5029742;28;20588;-75
2023/10/07 04:15:52;;;;;;;3.22;1.95;;;;;;;9.31;100.00;95488.75;5026648;28;20678;-74
2023/10/07 04:18:34;;;;;;;3.00;1.65;;;;;;;9.33;100.00;95483.84;5030101;28;20569;-74
2023/10/07 04:21:06;;;;;;;3.38;1.52;;;;;;;9.30;100.00;95487.16;5030028;28;20224;-74
2023/10/07 04:23:33;;;;;;;2.28;1.65;;;;;;;9.22;100.00;95486.75;5029884;28;20596;-75
2023/10/07 04:26:09;;;;;;;2.90;1.80;;;;;;;9.19;100.00;95487.34;5030212;28;20197;-74
2023/10/07 04:28:39;;;;;;;2.20;1.13;;;;;;;9.22;100.00;95481.34;5029768;28;20204;-74
2023/10/07 04:31:10;;;;;;;0.30;0.30;;;;;;;9.28;100.00;95473.97;5029633;28;20204;-75
2023/10/07 04:33:46;;;;;;;0.20;0.20;;;;;;;9.26;100.00;95466.16;5033267;28;20213;-74
2023/10/07 04:36:13;;;;;;;0.20;0.20;;;;;;;9.33;100.00;95465.75;5033783;28;20673;-74
2023/10/07 04:38:52;;;;;;;14.25;1.10;;;;;;;9.35;100.00;95474.34;5033802;28;20207;-74
2023/10/07 04:41:30;;;;;;;0.40;0.40;;;;;;;9.35;100.00;95474.34;5033632;28;20204;-74
2023/10/07 04:44:11;;;;;;;0.40;0.40;;;;;;;9.48;100.00;95472.75;5021523;28;20269;-76
2023/10/07 04:46:55;;;;;;;0.90;0.75;;;;;;;9.53;100.00;95469.97;5033660;28;20295;-74
2023/10/07 04:49:36;;;;;;;0.20;0.20;;;;;;;9.58;100.00;95472.56;5032884;28;20238;-74
2023/10/07 04:52:07;;;;;;;0.40;0.40;;;;;;;9.98;100.00;95474.44;5033574;28;20207;-74
2023/10/07 04:54:35;;;;;;;0.20;0.20;;;;;;;10.85;100.00;95477.97;5033668;28;20220;-74
2023/10/07 04:57:09;;;;;;;0.20;0.20;;;;;;;11.79;100.00;95469.56;5033544;28;20657;-74
2023/10/07 04:59:45;;;;;;;0.20;0.20;;;;;;;12.75;94.21;95468.59;5033357;28;20207;-74
2023/10/07 05:02:15;;;;;;;0.20;0.20;;;;;;;13.45;91.10;95465.47;5033138;28;20647;-74
2023/10/07 05:04:49;;;;;;;0.45;0.30;;;;;;;14.21;88.88;95470.13;5033592;28;20204;-74
2023/10/07 05:07:24;;;;;;;0.98;0.75;;;;;;;15.01;84.89;95470.03;5033202;28;20995;-75
2023/10/07 05:09:50;;;;;;;0.40;0.40;;;;;;;15.52;82.44;95465.97;5020534;28;20303;-74
2023/10/07 05:12:18;;;;;;;0.20;0.20;;;;;;;16.23;79.02;95460.16;5025374;28;20310;-75
2023/10/07 05:14:45;;;;;;;0.65;0.63;;;;;;;16.86;63.59;95461.31;5032886;28;20228;-73
2023/10/07 05:17:12;;;;;;;0.47;0.47;;;;;;;17.02;64.62;95462.16;5032651;28;20200;-74
2023/10/07 05:19:38;;;;;;;3.10;1.50;;;;;;;17.35;63.81;95461.13;5032609;28;20211;-74
2023/10/07 05:22:14;;;;;;;0.20;0.20;;;;;;;17.33;63.73;95466.94;5027300;28;20261;-75
2023/10/07 05:24:41;;;;;;;0.57;0.57;;;;;;;17.53;62.30;95470.59;5032729;28;20227;-75
2023/10/07 05:27:08;;;;;;;1.40;1.13;;;;;;;17.74;61.70;95473.94;5030998;28;20244;-75
2023/10/07 05:29:35;;;;;;;0.22;0.22;;;;;;;17.93;60.95;95469.69;5026207;28;20219;-76
2023/10/07 05:32:01;;;;;;;0.20;0.20;;;;;;;18.68;57.14;95480.53;5028336;28;20234;-74
2023/10/07 05:34:29;;;;;;;0.10;0.10;;;;;;;18.65;57.94;95484.78;5030578;28;20232;-75
2023/10/07 05:37:01;;;;;;;2.72;1.67;;;;;;;18.87;56.17;95482.50;5029215;28;20222;-75
2023/10/07 05:39:32;;;;;;;0.50;0.50;;;;;;;19.15;55.34;95481.13;5028481;28;20217;-75
2023/10/07 05:41:59;;;;;;;0.20;0.20;;;;;;;19.44;54.42;95481.72;5031346;28;20208;-76
2023/10/07 05:44:26;;;;;;;0.43;0.43;;;;;;;19.22;53.41;95485.22;5037888;28;20204;-76
2023/10/07 05:46:53;;;;;;;0.40;0.40;;;;;;;19.21;54.05;95486.34;5028983;28;20204;-76
2023/10/07 05:49:20;;;;;;;0.73;0.73;;;;;;;19.69;52.35;95483.00;5027028;28;20244;-75
2023/10/07 05:51:47;;;;;;;0.20;0.20;;;;;;;19.88;51.53;95490.44;5029372;28;20215;-75
2023/10/07 05:54:18;;;;;;;1.88;1.45;;;;;;;20.20;51.55;95491.00;5030724;28;20215;-78
2023/10/07 05:56:48;;;;;;;0.47;0.47;;;;;;;19.93;51.69;95481.09;5031535;28;20670;-77
2023/10/07 05:59:15;;;;;;;1.10;0.75;;;;;;;20.31;50.59;95491.94;5028309;28;20215;-76
2023/10/07 06:01:42;;;;;;;2.40;0.35;;;;;;;20.29;50.05;95488.78;5025014;28;20205;-76
2023/10/07 06:04:11;;;;;;;0.77;0.32;;;;;;;19.61;51.92;95500.53;5027466;28;20232;-76
2023/10/07 06:06:42;;;;;;;0.13;0.13;;;;;;;20.05;50.81;95492.69;5025759;28;20734;-76
2023/10/07 06:09:10;;;;;;;0.40;0.40;;;;;;;19.63;52.17;95494.69;5023669;28;20192;-77
2023/10/07 06:11:37;;;;;;;0.30;0.30;;;;;;;20.14;50.91;95489.69;5022181;28;20256;-76
2023/10/07 06:14:06;;;;;;;1.65;1.50;;;;;;;20.73;50.02;95480.84;5025398;28;20672;-76
2023/10/07 06:16:33;;;;;;;2.85;1.67;;;;;;;20.70;49.54;95486.28;5030294;28;20574;-73
2023/10/07 06:19:00;;;;;;;3.63;1.38;;;;;;;21.29;47.09;95480.03;5025361;28;20212;-73
2023/10/07 06:21:29;;;;;;;2.28;1.38;;;;;;;20.57;48.39;95483.75;5031126;28;20250;-75
2023/10/07 06:23:58;;;;;;;1.83;0.75;;;;;;;20.32;48.94;95485.28;5027770;28;20212;-72
2023/10/07 06:26:25;;;;;;;1.55;1.40;;;;;;;19.92;49.75;95479.50;5027464;28;20208;-73
2023/10/07 06:28:56;;;;;;;2.45;1.42;;;;;;;19.27;51.39;95491.19;5030326;28;20573;-73
2023/10/07 06:31:31;;;;;;;5.10;1.90;;;;;;;18.92;51.71;95494.00;5031348;28;20254;-73
2023/10/07 06:34:03;;;;;;;0.80;0.80;;;;;;;17.48;55.56;95497.47;5030979;28;20569;-75
2023/10/07 06:36:32;;;;;;;0.20;0.20;;;;;;;17.34;56.54;95503.34;5030857;28;20227;-75
2023/10/07 06:39:01;;;;;;;0.20;0.20;;;;;;;17.33;56.49;95502.56;5030877;28;20204;-75
2023/10/07 06:41:29;;;;;;;0.63;0.55;;;;;;;17.09;57.34;95510.03;5024855;28;20215;-75
2023/10/07 06:43:59;;;;;;;0.20;0.20;;;;;;;17.16;57.67;95508.31;5030772;28;20232;-73
2023/10/07 06:46:31;;;;;;;0.93;0.65;;;;;;;16.80;58.85;95509.22;5030935;28;20223;-76
2023/10/07 06:48:59;;;;;;;0.55;0.55;;;;;;;16.63;59.22;95512.22;5029195;28;20651;-76
2023/10/07 06:51:29;;;;;;;0.20;0.20;;;;;;;16.39;59.03;95512.22;5030905;28;20201;-74
2023/10/07 06:53:58;;;;;;;0.30;0.30;;;;;;;16.48;59.51;95510.16;5029746;28;20203;-75
2023/10/07 06:56:26;;;;;;;0.63;0.63;;;;;;;17.24;57.36;95509.31;5029718;28;20232;-76
2023/10/07 06:58:54;;;;;;;0.38;0.38;;;;;;;17.59;56.54;95498.56;5030664;28;20291;-75
2023/10/07 07:01:35;;;;;;;2.50;0.43;;;;;;;16.62;59.29;95496.91;5028991;28;20204;-74
2023/10/07 07:04:09;;;;;;;0.20;0.20;;;;;;;16.72;60.15;95501.94;5027293;28;20283;-76
2023/10/07 07:06:42;;;;;;;0.32;0.32;;;;;;;17.01;59.94;95495.34;5027369;28;20196;-76
2023/10/07 07:09:41;;;;;;;0.30;0.30;;;;;;;16.93;60.73;95502.59;5029033;28;20270;-75
2023/10/07 07:11:58;;;;;;;0.25;0.25;;;;;;;16.32;62.24;95491.69;5028734;28;20623;-74
2023/10/07 07:14:28;;;;;;;0.10;0.10;;;;;;;15.86;63.38;95500.31;5023131;28;20327;-75
2023/10/07 07:16:56;;;;;;;0.20;0.20;;;;;;;15.61;64.79;95500.28;5005913;28;20233;-79
2023/10/07 07:19:24;;;;;;;1.33;1.00;;;;;;;15.65;64.29;95500.41;5002005;28;20534;-74
2023/10/07 07:21:50;;;;;;;0.77;0.77;;;;;;;15.38;65.60;95499.06;5004083;28;20209;-76
2023/10/07 07:24:24;;;;;;;0.40;0.40;;;;;;;15.45;65.74;95506.69;5005449;28;20215;-74
2023/10/07 07:26:51;;;;;;;0.70;0.52;;;;;;;15.38;66.01;95507.25;5008688;28;20208;-75
2023/10/07 07:29:19;;;;;;;0.20;0.20;;;;;;;15.56;65.66;95508.72;5004666;28;20219;-76
2023/10/07 07:31:46;;;;;;;0.28;0.28;;;;;;;15.78;65.13;95502.03;5005929;28;20866;-74
2023/10/07 07:34:36;;;;;;;2.35;1.38;;;;;;;16.27;64.01;95500.13;5008950;28;20639;-75
2023/10/07 07:37:06;;;;;;;0.35;0.35;;;;;;;16.30;64.63;95493.97;5027948;28;20216;-75
2023/10/07 07:39:33;;;;;;;2.78;1.33;;;;;;;16.38;63.69;95499.69;5027037;28;20235;-74
2023/10/07 07:42:15;;;;;;;0.20;0.20;;;;;;;16.14;63.70;95495.00;5024203;28;20251;-76
2023/10/07 07:44:55;;;;;;;0.35;0.35;;;;;;;15.98;65.29;95497.63;5027955;28;20204;-77
2023/10/07 07:47:23;;;;;;;0.77;0.50;;;;;;;16.07;65.03;95490.09;5028723;28;20204;-75
2023/10/07 07:49:51;;;;;;;0.10;0.10;;;;;;;16.18;64.28;95485.78;5028808;28;20295;-76
2023/10/07 07:52:19;;;;;;;0.55;0.55;;;;;;;15.91;65.04;95486.44;5026773;28;20216;-75
2023/10/07 07:54:46;;;;;;;0.77;0.77;;;;;;;16.09;64.37;95476.91;5028089;28;20295;-75
2023/10/07 07:57:16;;;;;;;0.20;0.20;;;;;;;16.30;64.10;95477.56;5028545;28;20224;-74
2023/10/07 07:59:43;;;;;;;2.03;1.40;;;;;;;16.65;63.35;95477.09;5027781;28;20222;-73
2023/10/07 08:02:13;;;;;;;3.50;1.92;;;;;;;16.80;62.30;95468.19;5028748;28;20231;-74
2023/10/07 08:04:43;;;;;;;0.45;0.45;;;;;;;17.05;62.39;95466.94;5030176;28;20215;-75
2023/10/07 08:07:18;;;;;;;6.72;1.35;;;;;;;17.07;61.73;95474.03;5032791;28;20269;-74
2023/10/07 08:09:50;;;;;;;1.50;0.98;;;;;;;17.08;61.36;95470.16;5032957;28;20668;-75
2023/10/07 08:12:19;;;;;;;0.70;0.70;;;;;;;17.01;61.81;95479.72;5033845;28;20208;-75
2023/10/07 08:14:47;;;;;;;1.17;0.95;;;;;;;17.38;61.33;95474.09;5033940;28;20278;-76
2023/10/07 08:17:19;;;;;;;2.70;0.52;;;;;;;17.19;61.49;95479.44;5031123;28;20290;-75
2023/10/07 08:19:49;;;;;;;3.75;2.08;;;;;;;17.09;62.36;95482.66;5033388;28;20208;-76
2023/10/07 08:22:18;;;;;;;3.88;1.73;;;;;;;16.96;62.40;95476.44;5033143;28;20286;-76
2023/10/07 08:24:47;;;;;;;2.55;1.70;;;;;;;17.31;62.12;95471.19;5029073;28;20687;-77
2023/10/07 08:30:05;;;;;;;3.22;2.30;;;;;;;17.27;62.77;95475.75;5025820;28;20200;-75
2023/10/07 08:32:37;;;;;;;0.20;0.20;;;;;;;17.36;61.00;95457.22;5029677;28;20582;-76
2023/10/07 08:35:14;;;;;;;3.10;1.67;;;;;;;17.75;60.09;95461.84;5030032;28;20200;-76
2023/10/07 08:37:45;;;;;;;0.25;0.25;;;;;;;18.06;60.12;95458.28;5025554;28;20269;-76
2023/10/07 08:40:26;;;;;;;0.40;0.40;;;;;;;17.72;59.81;95453.50;5029246;28;20683;-76
2023/10/07 08:42:57;;;;;;;0.40;0.40;;;;;;;17.64;60.23;95435.28;5026416;28;20208;-77
2023/10/07 08:45:28;;;;;;;0.85;0.85;;;;;;;17.61;59.83;95442.25;5026839;28;20565;-78
2023/10/07 08:48:08;;;;;;;0.65;0.65;;;;;;;17.74;61.16;95443.78;5024928;28;20207;-77
2023/10/07 08:50:43;;;;;;;0.40;0.40;;;;;;;17.68;59.62;95438.91;5028685;28;20318;-76
2023/10/07 08:53:11;;;;;;;0.47;0.47;;;;;;;17.82;59.08;95435.75;5019150;28;20235;-75
2023/10/07 08:55:43;;;;;;;1.40;0.93;;;;;;;18.19;58.17;95434.28;5006737;28;20237;-76
2023/10/07 08:58:11;;;;;;;1.40;1.27;;;;;;;18.36;57.46;95431.16;4998060;28;20255;-74
2023/10/07 09:00:45;;;;;;;0.68;0.60;;;;;;;18.48;57.76;95439.28;5023780;28;20200;-76
2023/10/07 09:03:15;;;;;;;0.60;0.60;;;;;;;18.70;56.87;95417.84;5032590;28;20204;-75
2023/10/07 09:05:43;;;;;;;0.73;0.73;;;;;;;18.70;57.10;95423.31;5033376;28;20289;-74
2023/10/07 09:08:11;;;;;;;1.13;0.73;;;;;;;18.48;56.92;95420.06;5032672;28;20235;-76
2023/10/07 09:10:40;;;;;;;2.90;2.03;;;;;;;18.26;55.26;95420.75;5030731;28;20305;-75
2023/10/07 09:13:19;;;;;;;2.97;1.80;;;;;;;18.33;56.18;95423.66;5019968;28;20212;-75
2023/10/07 09:15:52;;;;;;;4.45;2.28;;;;;;;18.61;56.01;95417.22;5032647;28;20232;-75
2023/10/07 09:18:28;;;;;;;1.92;1.40;;;;;;;18.86;54.78;95413.06;5031930;28;20259;-75
2023/10/07 09:20:56;;;;;;;3.40;1.98;;;;;;;18.99;53.57;95410.97;5032655;28;20226;-74
2023/10/07 09:23:33;;;;;;;2.25;1.63;;;;;;;18.75;53.91;95412.03;5038210;28;20199;-75
2023/10/07 09:26:14;;;;;;;2.78;1.85;;;;;;;19.11;53.91;95413.56;5040779;28;20203;-76
2023/10/07 09:28:46;;;;;;;0.80;0.47;;;;;;;19.40;52.35;95417.66;5040735;28;20196;-76
2023/10/07 09:31:15;;;;;;;0.55;0.50;;;;;;;19.65;52.05;95416.19;5032362;28;20495;-76
2023/10/07 09:33:45;;;;;;;3.30;1.02;;;;;;;19.65;51.52;95407.13;5032521;28;20200;-77
2023/10/07 09:39:43;;;;;;;3.25;1.65;;;;;;;19.14;51.79;95402.63;5026855;28;20290;-78
2023/10/07 09:42:26;;;;;;;0.38;0.38;;;;;;;19.30;51.13;95410.00;5032415;28;20212;-74
2023/10/07 09:44:56;;;;;;;3.25;1.88;;;;;;;19.37;52.06;95410.13;5036385;28;20224;-74
2023/10/07 09:47:24;;;;;;;5.75;2.10;;;;;;;19.47;51.06;95409.53;5031696;28;20208;-73
2023/10/07 09:49:57;;;;;;;3.30;2.28;;;;;;;19.09;52.05;95411.19;5031905;28;20615;-75
2023/10/07 09:52:29;;;;;;;2.85;1.75;;;;;;;19.28;53.09;95407.59;5032014;28;20592;-74
2023/10/07 09:55:21;;;;;;;2.45;1.85;;;;;;;19.35;51.05;95390.47;5027711;28;20281;-72
2023/10/07 09:58:11;;;;;;;1.85;0.82;;;;;;;19.04;52.10;95392.25;5025061;28;20227;-75
2023/10/07 10:00:46;;;;;;;1.42;0.95;;;;;;;18.87;52.02;95387.19;5029681;28;20204;-75
2023/10/07 10:03:33;;;;;;;0.85;0.68;;;;;;;18.86;52.17;95384.81;5030141;28;20607;-77
2023/10/07 10:06:17;;;;;;;1.30;1.00;;;;;;;19.51;50.68;95383.75;5031469;28;20949;-78
2023/10/07 10:08:59;;;;;;;0.60;0.60;;;;;;;19.70;50.61;95380.13;5027726;28;20209;-73
2023/10/07 10:11:44;;;;;;;6.25;1.27;;;;;;;19.66;50.52;95367.50;5026440;28;21569;-76
2023/10/07 10:14:19;;;;;;;3.30;1.73;;;;;;;19.72;50.09;95366.81;5022490;28;20278;-75
2023/10/07 10:16:52;;;;;;;2.78;1.92;;;;;;;19.84;50.47;95363.84;5028025;28;20220;-74
2023/10/07 10:19:26;;;;;;;3.60;2.08;;;;;;;20.07;50.15;95343.78;5030038;28;20208;-77
2023/10/07 10:21:53;;;;;;;3.13;2.03;;;;;;;20.44;49.45;95341.97;5029695;28;20611;-75
2023/10/07 10:24:24;;;;;;;1.55;0.93;;;;;;;20.67;49.39;95338.31;5026441;28;20260;-78
2023/10/07 10:26:51;;;;;;;0.90;0.70;;;;;;;20.12;49.35;95330.50;5024544;28;20280;-77
2023/10/07 10:29:25;;;;;;;6.28;2.22;;;;;;;20.19;50.21;95330.59;5028967;28;20216;-76
2023/10/07 10:31:58;;;;;;;2.47;1.80;;;;;;;20.48;49.40;95320.81;5031594;28;20219;-75
2023/10/07 10:34:26;;;;;;;2.75;2.00;;;;;;;20.63;48.79;95310.78;5028219;28;20201;-77
2023/10/07 10:36:56;;;;;;;0.95;0.80;;;;;;;20.91;48.24;95313.03;5027520;28;20327;-75
2023/10/07 10:39:25;;;;;;;2.95;1.65;;;;;;;21.05;47.87;95299.41;5028352;28;20210;-77
2023/10/07 10:42:01;;;;;;;3.92;2.20;;;;;;;20.63;48.63;95304.47;5026919;28;20206;-77
2023/10/07 10:44:36;;;;;;;6.78;1.95;;;;;;;20.62;48.81;95300.91;5025276;28;20219;-75
2023/10/07 10:47:03;;;;;;;0.73;0.73;;;;;;;20.51;48.90;95298.00;5014817;28;20650;-74
2023/10/07 10:49:32;;;;;;;0.57;0.57;;;;;;;20.43;49.06;95285.34;5028431;28;20236;-76
2023/10/07 10:52:02;;;;;;;0.52;0.52;;;;;;;20.50;48.77;95279.91;5028913;28;20208;-77
2023/10/07 10:54:29;;;;;;;0.40;0.40;;;;;;;20.10;49.34;95277.00;5028887;28;20287;-76
2023/10/07 10:56:59;;;;;;;1.92;0.98;;;;;;;20.41;49.22;95273.91;5028375;28;20232;-77
2023/10/07 10:59:42;;;;;;;3.30;1.65;;;;;;;20.78;48.29;95256.63;5027499;28;20219;-77
2023/10/07 11:02:11;;;;;;;2.45;1.50;;;;;;;20.57;48.40;95258.00;5026349;28;20225;-75
2023/10/07 11:04:38;;;;;;;3.38;1.50;;;;;;;20.63;48.48;95258.44;5029771;28;20204;-77
2023/10/07 11:07:07;;;;;;;4.72;2.05;;;;;;;20.41;48.85;95254.66;5028168;28;20242;-78
2023/10/07 11:09:38;;;;;;;2.35;1.77;;;;;;;20.42;48.67;95245.22;5029776;28;20204;-74
2023/10/07 11:12:20;;;;;;;1.60;1.30;;;;;;;20.68;47.93;95240.78;5029277;28;20259;-78
2023/10/07 11:14:48;;;;;;;2.42;1.88;;;;;;;20.95;48.01;95236.72;5029544;28;20238;-76
2023/10/07 11:17:16;;;;;;;0.40;0.40;;;;;;;20.89;47.58;95224.50;5025668;28;20611;-75
2023/10/07 11:19:44;;;;;;;1.20;0.63;;;;;;;20.99;48.37;95223.78;5027312;28;20291;-76
2023/10/07 11:22:19;;;;;;;0.50;0.50;;;;;;;20.87;48.15;95229.59;5023502;28;21355;-76
2023/10/07 11:24:50;;;;;;;0.40;0.40;;;;;;;20.83;47.32;95226.00;5026797;28;20572;-78
2023/10/07 11:27:17;;;;;;;2.67;1.75;;;;;;;21.01;47.36;95226.97;5026573;28;20208;-77
2023/10/07 11:29:45;;;;;;;2.85;1.67;;;;;;;21.08;47.27;95210.47;5029291;28;20197;-75
2023/10/07 11:32:13;;;;;;;2.55;1.63;;;;;;;21.32;46.51;95205.63;5026499;28;20204;-75
2023/10/07 11:34:43;;;;;;;2.75;1.17;;;;;;;21.16;47.31;95201.13;5028216;28;20278;-78
2023/10/07 11:37:19;;;;;;;0.75;0.70;;;;;;;21.25;47.18;95196.09;5023713;28;20361;-75
2023/10/07 11:39:49;;;;;;;2.13;1.73;;;;;;;21.13;47.10;95190.84;5028029;28;20219;-74
2023/10/07 11:42:20;;;;;;;2.70;1.50;;;;;;;21.14;47.31;95197.16;5029925;28;20207;-75
2023/10/07 11:44:54;;;;;;;1.77;1.27;;;;;;;21.63;46.45;95200.31;5025367;28;20212;-75
2023/10/07 11:47:24;;;;;;;3.40;1.52;;;;;;;21.80;45.50;95189.78;5025564;28;20620;-76
2023/10/07 11:49:52;;;;;;;2.45;1.50;;;;;;;21.94;45.55;95185.13;5028070;28;20286;-74
2023/10/07 11:52:20;;;;;;;3.80;1.92;;;;;;;22.11;45.23;95177.34;5029897;28;20215;-75
2023/10/07 11:54:47;;;;;;;2.75;1.42;;;;;;;22.33;44.36;95184.53;5027127;28;20227;-75
2023/10/07 11:57:15;;;;;;;2.42;1.23;;;;;;;22.29;44.63;95180.94;5026773;28;20254;-75
2023/10/07 11:59:43;;;;;;;1.95;1.42;;;;;;;22.03;44.37;95175.72;5027891;28;20208;-75
2023/10/07 12:02:14;;;;;;;1.90;1.23;;;;;;;21.89;44.13;95165.38;5022143;28;20200;-75